createdAt,value
2018-11-14T00:00:31.081Z,8.17
2018-11-14T00:03:00.796Z,7.70
2018-11-14T00:05:29.702Z,8.47
2018-11-14T00:07:59.070Z,7.10
2018-11-14T00:10:28.121Z,7.77
2018-11-14T00:13:00.614Z,7.15
2018-11-14T00:15:32.217Z,7.40
2018-11-14T00:18:01.295Z,7.30
2018-11-14T00:20:30.724Z,8.00
2018-11-14T00:23:00.456Z,7.63
2018-11-14T00:25:29.390Z,8.20
2018-11-14T00:27:58.584Z,7.77
2018-11-14T00:30:27.768Z,8.50
2018-11-14T00:32:57.416Z,7.47
2018-11-14T00:35:28.403Z,7.83
2018-11-14T00:37:57.572Z,7.20
2018-11-14T00:40:26.927Z,7.40
2018-11-14T00:42:56.778Z,6.53
2018-11-14T00:45:26.086Z,6.53
2018-11-14T00:47:56.695Z,6.33
2018-11-14T00:50:25.797Z,5.77
2018-11-14T00:52:55.185Z,6.60
2018-11-14T00:55:24.180Z,5.83
2018-11-14T00:57:53.469Z,7.27
2018-11-14T01:00:23.709Z,7.47
2018-11-14T01:02:52.905Z,6.90
2018-11-14T01:05:22.072Z,7.17
2018-11-14T01:07:51.086Z,7.30
2018-11-14T01:10:21.295Z,6.67
2018-11-14T01:12:50.875Z,6.73
2018-11-14T01:15:20.763Z,6.67
2018-11-14T01:17:50.153Z,6.90
2018-11-14T01:20:20.590Z,6.73
2018-11-14T01:22:50.094Z,6.70
2018-11-14T01:25:19.562Z,7.03
2018-11-14T01:27:48.739Z,7.50
2018-11-14T01:30:19.015Z,8.00
2018-11-14T01:32:48.495Z,7.10
2018-11-14T01:35:17.928Z,7.67
2018-11-14T01:37:46.881Z,7.78
2018-11-14T01:40:18.311Z,7.27
2018-11-14T01:42:48.506Z,9.10
2018-11-14T01:45:17.525Z,9.07
2018-11-14T01:47:53.746Z,10.20
2018-11-14T01:50:22.641Z,10.40
2018-11-14T01:52:51.663Z,8.40
2018-11-14T01:56:46.401Z,9.50
2018-11-14T01:59:14.816Z,8.30
2018-11-14T02:01:43.615Z,8.98
2018-11-14T02:04:12.172Z,8.77
2018-11-14T02:06:41.066Z,10.20
2018-11-14T02:09:10.589Z,10.40
2018-11-14T02:11:39.314Z,7.17
2018-11-14T02:14:07.936Z,8.00
2018-11-14T02:16:36.398Z,10.20
2018-11-14T02:19:05.211Z,8.40
2018-11-14T02:21:34.562Z,22.40
2018-11-14T02:24:03.439Z,11.43
2018-11-14T02:26:32.125Z,7.10
2018-11-14T02:29:01.145Z,12.30
2018-11-14T02:31:29.852Z,11.00
2018-11-14T02:33:58.538Z,11.30
2018-11-14T02:36:27.333Z,8.97
2018-11-14T02:38:55.996Z,8.93
2018-11-14T02:41:24.602Z,9.90
2018-11-14T02:43:53.408Z,9.03
2018-11-14T02:46:22.308Z,10.10
2018-11-14T02:48:50.968Z,10.50
2018-11-14T02:51:26.033Z,8.77
2018-11-14T02:53:54.928Z,8.45
2018-11-14T02:56:23.437Z,7.57
2018-11-14T02:58:52.268Z,9.63
2018-11-14T03:01:21.150Z,7.67
2018-11-14T03:03:49.839Z,7.97
2018-11-14T03:06:18.543Z,8.60
2018-11-14T03:08:47.811Z,7.90
2018-11-14T03:11:16.597Z,9.17
2018-11-14T03:13:45.190Z,7.70
2018-11-14T03:16:13.962Z,7.53
2018-11-14T03:18:42.675Z,7.90
2018-11-14T03:21:11.265Z,8.50
2018-11-14T03:23:39.913Z,6.80
2018-11-14T03:26:08.730Z,8.10
2018-11-14T03:28:37.633Z,7.90
2018-11-14T03:31:06.539Z,7.87
2018-11-14T03:33:35.071Z,8.00
2018-11-14T03:36:08.895Z,7.93
2018-11-14T03:38:37.492Z,6.00
2018-11-14T03:41:06.253Z,6.10
2018-11-14T03:43:34.860Z,7.00
2018-11-14T03:46:03.393Z,6.30
2018-11-14T03:48:31.799Z,5.92
2018-11-14T03:51:00.383Z,6.30
2018-11-14T03:53:28.937Z,6.33
2018-11-14T03:55:57.514Z,5.77
2018-11-14T03:58:26.276Z,5.90
2018-11-14T04:00:54.801Z,6.73
2018-11-14T04:03:23.409Z,6.07
2018-11-14T04:05:53.242Z,6.67
2018-11-14T04:08:22.231Z,6.23
2018-11-14T04:10:51.019Z,5.70
2018-11-14T04:13:19.706Z,6.20
2018-11-14T04:15:48.394Z,5.73
2018-11-14T04:18:16.835Z,5.80
2018-11-14T04:20:45.348Z,6.10
2018-11-14T04:23:14.110Z,6.40
2018-11-14T04:25:42.755Z,6.20
2018-11-14T04:28:11.492Z,5.80
2018-11-14T04:30:40.511Z,5.90
2018-11-14T04:33:09.194Z,4.77
2018-11-14T04:35:38.088Z,5.60
2018-11-14T04:38:06.771Z,5.07
2018-11-14T04:40:35.568Z,4.83
2018-11-14T04:43:04.416Z,4.30
2018-11-14T04:45:33.241Z,4.80
2018-11-14T04:48:02.089Z,5.20
2018-11-14T04:50:30.681Z,4.73
2018-11-14T04:52:59.500Z,5.05
2018-11-14T04:55:28.502Z,5.27
2018-11-14T04:57:57.193Z,5.27
2018-11-14T05:00:26.688Z,6.30
2018-11-14T05:02:55.398Z,7.10
2018-11-14T05:05:24.926Z,7.10
2018-11-14T05:07:53.995Z,5.70
2018-11-14T05:10:24.077Z,7.17
2018-11-14T05:17:54.349Z,6.77
2018-11-14T05:20:23.594Z,5.50
2018-11-14T05:22:52.786Z,5.97
2018-11-14T05:25:21.641Z,5.87
2018-11-14T05:27:50.303Z,4.63
2018-11-14T05:30:20.547Z,5.57
2018-11-14T05:32:50.169Z,6.10
2018-11-14T05:35:18.909Z,6.20
2018-11-14T05:37:48.203Z,4.97
2018-11-14T05:40:19.112Z,6.00
2018-11-14T05:42:48.677Z,5.07
2018-11-14T05:45:18.884Z,6.10
2018-11-14T05:47:47.506Z,5.70
2018-11-14T05:50:17.732Z,5.13
2018-11-14T05:52:46.588Z,4.37
2018-11-14T05:55:15.571Z,6.53
2018-11-14T05:57:44.292Z,5.20
2018-11-14T06:00:29.455Z,5.10
2018-11-14T06:02:58.641Z,6.07
2018-11-14T06:05:27.533Z,6.50
2018-11-14T06:07:56.311Z,6.70
2018-11-14T06:10:24.881Z,5.63
2018-11-14T06:12:53.655Z,6.17
2018-11-14T06:16:48.925Z,9.67
2018-11-14T06:19:17.718Z,4.95
2018-11-14T06:21:46.751Z,4.08
2018-11-14T06:24:15.606Z,3.90
2018-11-14T06:26:44.420Z,4.43
2018-11-14T06:29:13.159Z,5.37
2018-11-14T06:31:42.167Z,6.28
2018-11-14T06:34:11.072Z,4.93
2018-11-14T06:36:39.976Z,4.00
2018-11-14T06:39:10.598Z,5.53
2018-11-14T06:41:40.220Z,3.92
2018-11-14T06:44:10.003Z,3.77
2018-11-14T06:46:38.958Z,3.50
2018-11-14T06:49:09.529Z,4.03
2018-11-14T06:51:39.760Z,4.47
2018-11-14T06:54:10.156Z,5.63
2018-11-14T06:56:38.978Z,5.90
2018-11-14T06:59:07.976Z,7.77
2018-11-14T07:01:37.230Z,6.80
2018-11-14T07:04:06.257Z,5.50
2018-11-14T07:13:05.663Z,10.90
2018-11-14T07:15:35.358Z,7.30
2018-11-14T07:18:06.121Z,9.08
2018-11-14T07:20:38.048Z,6.67
2018-11-14T07:23:07.428Z,4.47
2018-11-14T07:25:36.522Z,5.13
2018-11-14T07:28:05.381Z,4.67
2018-11-14T07:30:35.431Z,5.20
2018-11-14T07:33:05.914Z,4.10
2018-11-14T07:35:36.132Z,3.80
2018-11-14T07:38:33.314Z,4.60
2018-11-14T07:41:03.642Z,5.80
2018-11-14T07:43:33.193Z,12.10
2018-11-14T07:46:01.855Z,3.63
2018-11-14T07:48:31.192Z,5.20
2018-11-14T07:51:00.500Z,12.33
2018-11-14T07:53:29.183Z,15.63
2018-11-14T07:55:58.334Z,8.53
2018-11-14T07:58:27.286Z,6.35
2018-11-14T08:00:56.701Z,4.90
2018-11-14T08:03:26.008Z,4.60
2018-11-14T08:05:55.864Z,4.85
2018-11-14T08:08:25.527Z,4.65
2018-11-14T08:10:55.637Z,4.00
2018-11-14T08:13:25.908Z,4.70
2018-11-14T08:15:56.831Z,3.50
2018-11-14T08:18:25.840Z,4.65
2018-11-14T08:20:55.739Z,4.13
2018-11-14T08:23:24.960Z,3.87
2018-11-14T08:25:53.669Z,3.77
2018-11-14T08:28:22.664Z,3.90
2018-11-14T08:30:51.603Z,4.50
2018-11-14T08:33:20.612Z,3.70
2018-11-14T08:35:49.651Z,4.60
2018-11-14T08:38:18.920Z,5.20
2018-11-14T08:40:48.039Z,5.35
2018-11-14T08:43:17.142Z,5.60
2018-11-14T08:45:47.021Z,5.30
2018-11-14T08:48:16.320Z,6.10
2018-11-14T08:50:45.322Z,5.70
2018-11-14T08:53:14.579Z,6.13
2018-11-14T08:55:43.379Z,5.53
2018-11-14T08:58:13.063Z,6.03
2018-11-14T09:00:42.379Z,7.00
2018-11-14T09:03:12.440Z,6.40
2018-11-14T09:05:41.341Z,6.37
2018-11-14T09:08:10.198Z,5.80
2018-11-14T09:10:39.101Z,6.00
2018-11-14T09:13:12.416Z,4.97
2018-11-14T09:15:41.167Z,6.27
2018-11-14T09:18:10.356Z,6.40
2018-11-14T09:20:39.551Z,6.67
2018-11-14T09:23:10.385Z,6.90
2018-11-14T09:25:39.632Z,6.40
2018-11-14T09:28:08.414Z,6.93
2018-11-14T09:30:37.779Z,6.80
2018-11-14T09:33:07.356Z,6.63
2018-11-14T09:35:36.434Z,6.77
2018-11-14T09:38:05.569Z,7.20
2018-11-14T09:40:35.666Z,7.73
2018-11-14T09:43:04.851Z,7.65
2018-11-14T09:45:33.839Z,8.30
2018-11-14T09:48:02.953Z,6.87
2018-11-14T09:50:32.829Z,7.90
2018-11-14T10:19:02.645Z,4.93
2018-11-14T10:21:31.526Z,4.60
2018-11-14T10:24:00.779Z,6.10
2018-11-14T10:26:29.406Z,5.37
2018-11-14T10:28:58.817Z,4.90
2018-11-14T10:31:28.336Z,6.07
2018-11-14T10:33:57.361Z,5.80
2018-11-14T10:36:26.677Z,6.37
2018-11-14T10:38:56.100Z,5.63
2018-11-14T10:41:26.048Z,5.87
2018-11-14T10:43:55.242Z,5.20
2018-11-14T10:46:24.868Z,5.73
2018-11-14T10:48:54.476Z,5.73
2018-11-14T10:51:23.909Z,10.60
2018-11-14T10:53:52.616Z,6.30
2018-11-14T10:56:21.686Z,6.03
2018-11-14T10:58:50.975Z,6.00
2018-11-14T11:01:24.935Z,6.53
2018-11-14T11:04:01.393Z,6.13
2018-11-14T11:06:36.165Z,6.23
2018-11-14T11:09:15.017Z,6.43
2018-11-14T11:11:49.181Z,5.92
2018-11-14T11:14:23.352Z,6.43
2018-11-14T11:17:56.929Z,6.53
2018-11-14T11:20:26.623Z,6.90
2018-11-14T11:22:55.659Z,6.40
2018-11-14T11:25:28.614Z,6.20
2018-11-14T11:28:04.696Z,6.95
2018-11-14T11:30:34.702Z,7.00
2018-11-14T11:33:04.388Z,7.30
2018-11-14T11:35:49.827Z,7.17
2018-11-14T11:38:22.659Z,7.40
2018-11-14T11:40:52.222Z,6.03
2018-11-14T11:43:25.633Z,6.57
2018-11-14T11:46:01.165Z,7.22
2018-11-14T11:48:36.275Z,6.87
2018-11-14T11:51:08.265Z,6.97
2018-11-14T11:54:01.257Z,8.37
2018-11-14T11:56:35.222Z,7.23
2018-11-14T11:59:05.372Z,7.60
2018-11-14T12:33:34.612Z,5.87
2018-11-14T14:18:13.235Z,5.50
2018-11-14T14:27:08.379Z,5.80
2018-11-14T14:29:55.560Z,5.33
2018-11-14T14:32:56.026Z,5.17
2018-11-14T14:35:30.040Z,4.90
2018-11-14T14:37:59.548Z,5.50
2018-11-14T14:40:28.913Z,6.50
2018-11-14T15:43:21.824Z,8.18
2018-11-14T15:46:08.754Z,7.30
2018-11-14T15:48:38.922Z,7.70
2018-11-14T15:51:08.474Z,8.77
2018-11-14T15:53:39.147Z,6.95
2018-11-14T15:56:09.121Z,9.23
2018-11-14T15:58:38.140Z,8.80
2018-11-14T16:01:23.231Z,9.38
2018-11-14T16:19:13.808Z,8.20
2018-11-14T16:21:50.588Z,8.60
2018-11-14T16:24:20.606Z,6.40
2018-11-14T16:26:58.353Z,6.10
2018-11-14T16:29:36.906Z,4.97
2018-11-14T16:44:29.513Z,5.00
2018-11-14T16:47:12.407Z,7.13
2018-11-14T16:49:41.810Z,6.08
2018-11-14T16:52:10.742Z,5.13
2018-11-14T16:54:39.666Z,5.13
2018-11-14T16:57:08.422Z,5.27
2018-11-14T16:59:37.321Z,6.08
2018-11-14T17:02:06.117Z,6.20
2018-11-14T17:07:35.778Z,6.95
2018-11-14T17:10:12.890Z,5.55
2018-11-14T17:12:49.642Z,4.37
2018-11-14T17:15:26.919Z,7.40
2018-11-14T17:17:56.574Z,8.03
2018-11-14T17:20:35.773Z,4.33
2018-11-14T17:23:04.762Z,6.00
2018-11-14T17:25:34.025Z,5.30
2018-11-14T17:28:02.798Z,7.15
2018-11-14T17:30:32.106Z,6.40
2018-11-14T17:33:01.075Z,6.10
2018-11-14T17:35:30.074Z,8.03
2018-11-14T17:37:59.384Z,9.55
2018-11-14T17:40:29.284Z,9.33
2018-11-14T17:43:00.510Z,10.57
2018-11-14T17:45:31.134Z,9.57
2018-11-14T17:48:00.725Z,8.98
2018-11-14T17:50:32.147Z,9.43
2018-11-14T17:53:02.171Z,8.93
2018-11-14T17:55:31.585Z,10.00
2018-11-14T17:58:00.560Z,9.97
2018-11-14T18:00:32.151Z,11.60
2018-11-14T18:03:01.697Z,12.20
2018-11-14T18:05:31.554Z,12.30
2018-11-14T18:08:00.368Z,13.33
2018-11-14T18:10:30.249Z,13.33
2018-11-14T18:12:59.932Z,13.80
2018-11-14T18:15:28.823Z,14.00
2018-11-14T18:17:58.209Z,13.90
2018-11-14T18:20:28.499Z,13.70
2018-11-14T18:22:57.661Z,15.47
2018-11-14T18:25:26.675Z,14.50
2018-11-14T18:28:12.121Z,16.10
2018-11-14T18:30:45.152Z,13.53
2018-11-14T18:36:12.399Z,14.73
2018-11-14T18:39:11.199Z,14.36
2018-11-14T18:41:40.096Z,15.57
2018-11-14T18:47:02.342Z,14.73
2018-11-14T18:49:34.784Z,13.00
2018-11-14T18:52:03.448Z,10.87
2018-11-14T18:54:32.229Z,12.60
2018-11-14T18:57:01.031Z,19.77
2018-11-14T18:59:29.860Z,27.13
2018-11-14T19:01:58.557Z,26.47
2018-11-14T19:04:27.445Z,22.47
2018-11-14T19:06:56.179Z,19.90
2018-11-14T19:09:24.900Z,18.50
2018-11-14T19:11:53.797Z,19.07
2018-11-14T19:14:23.150Z,21.30
2018-11-14T19:16:52.751Z,20.50
2018-11-14T19:19:21.422Z,17.47
2018-11-14T19:21:50.354Z,10.90
2018-11-14T19:24:19.025Z,12.60
2018-11-14T19:26:47.864Z,16.53
2018-11-14T19:29:16.950Z,18.17
2018-11-14T19:31:46.022Z,17.70
2018-11-14T19:34:14.963Z,16.65
2018-11-14T19:36:43.711Z,18.17
2018-11-14T19:39:13.446Z,16.43
2018-11-14T19:41:42.333Z,16.87
2018-11-14T19:44:11.078Z,18.20
2018-11-14T19:46:40.059Z,17.70
2018-11-14T19:49:09.157Z,16.53
2018-11-14T19:51:38.232Z,16.53
2018-11-14T19:54:07.064Z,16.87
2018-11-14T19:56:36.083Z,15.90
2018-11-14T19:59:04.955Z,17.13
2018-11-14T20:01:33.956Z,19.50
2018-11-14T20:04:03.162Z,20.10
2018-11-14T20:06:32.183Z,20.00
2018-11-14T20:09:00.934Z,25.60
2018-11-14T20:11:30.027Z,22.37
2018-11-14T20:13:59.036Z,18.70
2018-11-14T20:16:28.077Z,18.37
2018-11-14T20:18:56.922Z,15.93
2018-11-14T20:21:25.916Z,16.53
2018-11-14T20:23:54.994Z,16.80
2018-11-14T20:26:24.195Z,17.97
2018-11-14T20:28:53.155Z,18.47
2018-11-14T20:31:22.100Z,16.75
2018-11-14T20:33:51.041Z,15.28
2018-11-14T20:36:19.953Z,15.17
2018-11-14T20:38:49.095Z,14.93
2018-11-14T20:41:18.039Z,19.57
2018-11-14T20:43:46.756Z,22.47
2018-11-14T20:46:15.581Z,19.40
2018-11-14T20:48:44.322Z,17.70
2018-11-14T20:51:13.112Z,17.90
2018-11-14T20:53:42.113Z,18.33
2018-11-14T20:56:10.867Z,17.00
2018-11-14T20:58:39.801Z,17.00
2018-11-14T21:01:08.791Z,16.23
2018-11-14T21:03:37.815Z,15.28
2018-11-14T21:06:06.846Z,14.70
2018-11-14T21:08:35.658Z,14.90
2018-11-14T21:11:04.576Z,13.60
2018-11-14T21:13:33.841Z,14.80
2018-11-14T21:16:02.780Z,15.90
2018-11-14T21:18:31.471Z,14.93
2018-11-14T21:21:00.893Z,15.73
2018-11-14T21:23:29.630Z,13.90
2018-11-14T21:25:58.780Z,14.97
2018-11-14T21:28:27.443Z,16.57
2018-11-14T21:30:56.303Z,17.80
2018-11-14T21:33:25.257Z,18.43
2018-11-14T21:35:54.356Z,15.30
2018-11-14T21:38:23.709Z,14.03
2018-11-14T21:40:53.391Z,13.20
2018-11-14T21:43:22.373Z,13.13
2018-11-14T21:45:51.087Z,15.83
2018-11-14T21:48:19.944Z,14.17
2018-11-14T21:50:48.781Z,13.05
2018-11-14T21:53:17.677Z,14.30
2018-11-14T21:55:46.642Z,13.17
2018-11-14T21:58:15.697Z,13.50
2018-11-14T22:00:44.453Z,19.17
2018-11-14T22:03:13.130Z,15.90
2018-11-14T22:05:42.226Z,15.97
2018-11-14T22:08:10.954Z,12.00
2018-11-14T22:10:40.303Z,11.23
2018-11-14T22:13:09.391Z,11.53
2018-11-14T22:15:38.675Z,10.67
2018-11-14T22:18:08.801Z,11.07
2018-11-14T22:20:39.006Z,10.40
2018-11-14T22:23:08.589Z,9.50
2018-11-14T22:25:37.441Z,9.73
2018-11-14T22:28:06.800Z,10.20
2018-11-14T22:30:36.853Z,9.90
2018-11-14T22:33:06.197Z,9.80
2018-11-14T22:35:35.121Z,10.27
2018-11-14T22:38:03.858Z,8.80
2018-11-14T22:40:33.245Z,8.23
2018-11-14T22:43:02.869Z,8.90
2018-11-14T22:45:33.375Z,8.60
2018-11-14T22:48:02.664Z,10.20
2018-11-14T22:50:31.679Z,9.73
2018-11-14T22:53:00.648Z,9.90
2018-11-14T22:55:33.511Z,12.50
2018-11-14T23:00:42.084Z,11.50
2018-11-14T23:03:11.553Z,10.50
2018-11-14T23:05:40.441Z,11.77
2018-11-14T23:08:09.738Z,11.23
2018-11-14T23:10:39.822Z,12.10
2018-11-14T23:13:09.371Z,12.33
2018-11-14T23:15:39.486Z,10.97
2018-11-14T23:18:09.902Z,12.30
2018-11-14T23:20:39.263Z,11.20
2018-11-14T23:23:09.185Z,11.97
2018-11-14T23:25:38.533Z,11.53
2018-11-14T23:28:09.062Z,11.00
2018-11-14T23:30:37.945Z,10.90
2018-11-14T23:33:06.819Z,11.68
2018-11-14T23:35:35.866Z,11.53
2018-11-14T23:38:06.034Z,10.80
2018-11-14T23:40:34.851Z,12.23
2018-11-14T23:43:03.965Z,11.70
2018-11-14T23:45:32.963Z,10.33
2018-11-14T23:48:01.854Z,11.10
2018-11-14T23:50:32.175Z,11.73
2018-11-14T23:53:02.039Z,10.37
2018-11-14T23:55:31.856Z,10.13
2018-11-14T23:58:01.451Z,10.37
